sensor_id;sensor_type;location;lat;lon;timestamp;pressure;altitude;pressure_sealevel;temperature
60615;BMP280;46444;45.590;5.284;2022-11-04T00:00:08;98474.56;;;13.68
60615;BMP280;46444;45.590;5.284;2022-11-04T00:02:34;98472.69;;;13.69
60615;BMP280;46444;45.590;5.284;2022-11-04T00:05:11;98468.91;;;13.65
60615;BMP280;46444;45.590;5.284;2022-11-04T00:07:37;98468.38;;;13.63
60615;BMP280;46444;45.590;5.284;2022-11-04T00:10:26;98475.31;;;13.49
60615;BMP280;46444;45.590;5.284;2022-11-04T00:13:12;98466.47;;;13.53
60615;BMP280;46444;45.590;5.284;2022-11-04T00:15:38;98466.69;;;13.47
60615;BMP280;46444;45.590;5.284;2022-11-04T00:18:25;98475.56;;;13.47
60615;BMP280;46444;45.590;5.284;2022-11-04T00:20:51;98480.09;;;13.42
60615;BMP280;46444;45.590;5.284;2022-11-04T00:23:34;98467.19;;;13.34
60615;BMP280;46444;45.590;5.284;2022-11-04T00:29:51;98473.56;;;13.23
60615;BMP280;46444;45.590;5.284;2022-11-04T00:32:35;98476.50;;;13.16
60615;BMP280;46444;45.590;5.284;2022-11-04T00:35:20;98474.06;;;13.15
60615;BMP280;46444;45.590;5.284;2022-11-04T00:37:46;98468.97;;;13.13
60615;BMP280;46444;45.590;5.284;2022-11-04T00:40:24;98478.03;;;13.07
60615;BMP280;46444;45.590;5.284;2022-11-04T00:42:49;98469.50;;;13.10
60615;BMP280;46444;45.590;5.284;2022-11-04T00:45:18;98477.75;;;13.04
60615;BMP280;46444;45.590;5.284;2022-11-04T00:47:48;98474.25;;;12.98
60615;BMP280;46444;45.590;5.284;2022-11-04T00:50:46;98469.06;;;12.92
60615;BMP280;46444;45.590;5.284;2022-11-04T00:53:12;98473.38;;;12.93
60615;BMP280;46444;45.590;5.284;2022-11-04T00:55:37;98478.19;;;12.91
60615;BMP280;46444;45.590;5.284;2022-11-04T00:58:03;98469.69;;;12.99
60615;BMP280;46444;45.590;5.284;2022-11-04T01:00:28;98466.34;;;12.87
60615;BMP280;46444;45.590;5.284;2022-11-04T01:02:55;98468.28;;;12.91
60615;BMP280;46444;45.590;5.284;2022-11-04T01:05:27;98472.28;;;12.89
60615;BMP280;46444;45.590;5.284;2022-11-04T01:07:55;98465.88;;;12.95
60615;BMP280;46444;45.590;5.284;2022-11-04T01:11:08;98459.97;;;12.93
60615;BMP280;46444;45.590;5.284;2022-11-04T01:16:58;98454.59;;;12.93
60615;BMP280;46444;45.590;5.284;2022-11-04T01:23:13;98432.31;;;12.87
60615;BMP280;46444;45.590;5.284;2022-11-04T01:26:19;98436.06;;;12.86
60615;BMP280;46444;45.590;5.284;2022-11-04T01:28:45;98424.47;;;12.76
60615;BMP280;46444;45.590;5.284;2022-11-04T01:31:19;98431.78;;;12.85
60615;BMP280;46444;45.590;5.284;2022-11-04T01:33:54;98435.22;;;12.81
60615;BMP280;46444;45.590;5.284;2022-11-04T01:36:21;98436.31;;;12.85
60615;BMP280;46444;45.590;5.284;2022-11-04T01:38:47;98438.47;;;12.83
60615;BMP280;46444;45.590;5.284;2022-11-04T01:41:35;98429.56;;;12.77
60615;BMP280;46444;45.590;5.284;2022-11-04T01:50:51;98399.72;;;12.64
60615;BMP280;46444;45.590;5.284;2022-11-04T01:53:30;98402.16;;;12.65
60615;BMP280;46444;45.590;5.284;2022-11-04T01:55:58;98385.81;;;12.67
60615;BMP280;46444;45.590;5.284;2022-11-04T01:58:31;98389.03;;;12.69
60615;BMP280;46444;45.590;5.284;2022-11-04T02:01:17;98392.84;;;12.78
60615;BMP280;46444;45.590;5.284;2022-11-04T02:07:12;98392.03;;;12.77
60615;BMP280;46444;45.590;5.284;2022-11-04T02:09:49;98385.88;;;12.77
60615;BMP280;46444;45.590;5.284;2022-11-04T02:12:31;98381.25;;;12.67
60615;BMP280;46444;45.590;5.284;2022-11-04T02:24:40;98375.03;;;12.57
60615;BMP280;46444;45.590;5.284;2022-11-04T02:30:55;98345.78;;;12.55
60615;BMP280;46444;45.590;5.284;2022-11-04T02:33:48;98349.78;;;12.48
60615;BMP280;46444;45.590;5.284;2022-11-04T02:45:45;98325.09;;;12.46
60615;BMP280;46444;45.590;5.284;2022-11-04T02:48:22;98311.72;;;12.41
60615;BMP280;46444;45.590;5.284;2022-11-04T02:57:21;98309.75;;;12.26
60615;BMP280;46444;45.590;5.284;2022-11-04T02:59:59;98304.34;;;12.21
60615;BMP280;46444;45.590;5.284;2022-11-04T03:02:29;98306.22;;;12.21
60615;BMP280;46444;45.590;5.284;2022-11-04T03:04:57;98295.50;;;12.21
60615;BMP280;46444;45.590;5.284;2022-11-04T03:07:31;98290.38;;;12.14
60615;BMP280;46444;45.590;5.284;2022-11-04T03:10:02;98275.38;;;12.18
60615;BMP280;46444;45.590;5.284;2022-11-04T03:12:37;98286.34;;;12.12
60615;BMP280;46444;45.590;5.284;2022-11-04T03:15:07;98281.03;;;12.17
60615;BMP280;46444;45.590;5.284;2022-11-04T03:17:45;98275.63;;;12.12
60615;BMP280;46444;45.590;5.284;2022-11-04T03:20:26;98264.31;;;12.05
60615;BMP280;46444;45.590;5.284;2022-11-04T03:23:12;98263.53;;;12.04
60615;BMP280;46444;45.590;5.284;2022-11-04T03:25:47;98267.81;;;12.05
60615;BMP280;46444;45.590;5.284;2022-11-04T03:30:47;98264.28;;;11.95
60615;BMP280;46444;45.590;5.284;2022-11-04T03:36:48;98251.44;;;11.97
60615;BMP280;46444;45.590;5.284;2022-11-04T03:39:14;98246.53;;;11.84
60615;BMP280;46444;45.590;5.284;2022-11-04T03:41:47;98239.47;;;11.73
60615;BMP280;46444;45.590;5.284;2022-11-04T03:50:47;98252.41;;;11.86
60615;BMP280;46444;45.590;5.284;2022-11-04T03:53:17;98254.31;;;11.85
60615;BMP280;46444;45.590;5.284;2022-11-04T03:59:35;98256.69;;;11.82
60615;BMP280;46444;45.590;5.284;2022-11-04T04:02:19;98240.88;;;11.80
60615;BMP280;46444;45.590;5.284;2022-11-04T04:05:19;98249.16;;;11.79
60615;BMP280;46444;45.590;5.284;2022-11-04T04:07:51;98248.31;;;11.73
60615;BMP280;46444;45.590;5.284;2022-11-04T04:20:10;98234.38;;;11.71
60615;BMP280;46444;45.590;5.284;2022-11-04T04:23:08;98237.06;;;11.71
60615;BMP280;46444;45.590;5.284;2022-11-04T04:25:55;98233.00;;;11.69
60615;BMP280;46444;45.590;5.284;2022-11-04T04:35:08;98221.81;;;11.72
60615;BMP280;46444;45.590;5.284;2022-11-04T04:37:55;98207.91;;;11.70
60615;BMP280;46444;45.590;5.284;2022-11-04T04:40:48;98208.34;;;11.62
60615;BMP280;46444;45.590;5.284;2022-11-04T04:50:50;98184.19;;;11.52
60615;BMP280;46444;45.590;5.284;2022-11-04T04:53:16;98182.00;;;11.49
60615;BMP280;46444;45.590;5.284;2022-11-04T04:58:44;98158.03;;;11.59
60615;BMP280;46444;45.590;5.284;2022-11-04T05:01:10;98155.59;;;11.57
60615;BMP280;46444;45.590;5.284;2022-11-04T05:03:36;98144.69;;;11.64
60615;BMP280;46444;45.590;5.284;2022-11-04T05:06:01;98139.91;;;11.71
60615;BMP280;46444;45.590;5.284;2022-11-04T05:08:26;98138.25;;;11.60
60615;BMP280;46444;45.590;5.284;2022-11-04T05:10:52;98132.63;;;11.61
60615;BMP280;46444;45.590;5.284;2022-11-04T05:13:17;98141.50;;;11.67
60615;BMP280;46444;45.590;5.284;2022-11-04T05:15:55;98137.78;;;11.73
60615;BMP280;46444;45.590;5.284;2022-11-04T05:18:21;98134.28;;;11.67
60615;BMP280;46444;45.590;5.284;2022-11-04T05:20:46;98119.84;;;11.68
60615;BMP280;46444;45.590;5.284;2022-11-04T05:23:15;98110.47;;;11.71
60615;BMP280;46444;45.590;5.284;2022-11-04T05:29:12;98103.50;;;11.65
60615;BMP280;46444;45.590;5.284;2022-11-04T05:31:38;98106.94;;;11.60
60615;BMP280;46444;45.590;5.284;2022-11-04T05:34:13;98097.59;;;11.68
60615;BMP280;46444;45.590;5.284;2022-11-04T05:36:44;98087.78;;;11.83
60615;BMP280;46444;45.590;5.284;2022-11-04T05:39:12;98092.84;;;11.80
60615;BMP280;46444;45.590;5.284;2022-11-04T05:41:37;98096.09;;;11.82
60615;BMP280;46444;45.590;5.284;2022-11-04T05:44:07;98095.53;;;11.80
60615;BMP280;46444;45.590;5.284;2022-11-04T05:47:23;98092.31;;;11.78
60615;BMP280;46444;45.590;5.284;2022-11-04T05:50:10;98094.72;;;11.79
60615;BMP280;46444;45.590;5.284;2022-11-04T05:52:38;98085.88;;;11.79
60615;BMP280;46444;45.590;5.284;2022-11-04T05:55:46;98086.16;;;11.72
60615;BMP280;46444;45.590;5.284;2022-11-04T05:58:08;98081.34;;;11.79
60615;BMP280;46444;45.590;5.284;2022-11-04T06:03:57;98071.13;;;11.71
60615;BMP280;46444;45.590;5.284;2022-11-04T06:06:24;98063.94;;;11.77
60615;BMP280;46444;45.590;5.284;2022-11-04T06:08:51;98066.88;;;11.75
60615;BMP280;46444;45.590;5.284;2022-11-04T06:11:36;98055.63;;;11.73
60615;BMP280;46444;45.590;5.284;2022-11-04T06:14:02;98056.41;;;11.74
60615;BMP280;46444;45.590;5.284;2022-11-04T06:16:30;98048.38;;;11.69
60615;BMP280;46444;45.590;5.284;2022-11-04T06:18:56;98036.09;;;11.73
60615;BMP280;46444;45.590;5.284;2022-11-04T06:21:38;98032.34;;;11.74
60615;BMP280;46444;45.590;5.284;2022-11-04T06:24:15;98035.56;;;11.76
60615;BMP280;46444;45.590;5.284;2022-11-04T06:26:41;98039.00;;;11.71
60615;BMP280;46444;45.590;5.284;2022-11-04T06:29:06;98040.38;;;11.79
60615;BMP280;46444;45.590;5.284;2022-11-04T06:31:32;98031.03;;;11.81
60615;BMP280;46444;45.590;5.284;2022-11-04T06:33:57;98030.22;;;11.86
60615;BMP280;46444;45.590;5.284;2022-11-04T06:39:34;98030.78;;;11.93
60615;BMP280;46444;45.590;5.284;2022-11-04T06:42:00;98030.78;;;11.93
60615;BMP280;46444;45.590;5.284;2022-11-04T06:44:26;98040.69;;;11.87
60615;BMP280;46444;45.590;5.284;2022-11-04T06:46:52;98027.06;;;11.94
60615;BMP280;46444;45.590;5.284;2022-11-04T06:49:19;98028.94;;;11.98
60615;BMP280;46444;45.590;5.284;2022-11-04T06:51:46;98016.91;;;12.01
60615;BMP280;46444;45.590;5.284;2022-11-04T06:54:20;98020.66;;;12.05
60615;BMP280;46444;45.590;5.284;2022-11-04T06:56:45;98023.91;;;12.12
60615;BMP280;46444;45.590;5.284;2022-11-04T06:59:21;98025.75;;;12.11
60615;BMP280;46444;45.590;5.284;2022-11-04T07:01:49;98012.66;;;12.15
60615;BMP280;46444;45.590;5.284;2022-11-04T07:04:16;98024.44;;;12.19
60615;BMP280;46444;45.590;5.284;2022-11-04T07:06:42;98033.81;;;12.21
60615;BMP280;46444;45.590;5.284;2022-11-04T07:09:09;98025.22;;;12.19
60615;BMP280;46444;45.590;5.284;2022-11-04T07:11:35;98024.69;;;12.17
60615;BMP280;46444;45.590;5.284;2022-11-04T07:14:00;98022.56;;;12.14
60615;BMP280;46444;45.590;5.284;2022-11-04T07:16:35;98016.44;;;12.24
60615;BMP280;46444;45.590;5.284;2022-11-04T07:19:41;98010.00;;;12.25
60615;BMP280;46444;45.590;5.284;2022-11-04T07:22:12;98009.72;;;12.31
60615;BMP280;46444;45.590;5.284;2022-11-04T07:24:37;98004.66;;;12.35
60615;BMP280;46444;45.590;5.284;2022-11-04T07:27:03;98000.63;;;12.27
60615;BMP280;46444;45.590;5.284;2022-11-04T07:29:30;97997.97;;;12.32
60615;BMP280;46444;45.590;5.284;2022-11-04T07:31:55;98003.81;;;12.19
60615;BMP280;46444;45.590;5.284;2022-11-04T07:37:34;97995.25;;;12.42
60615;BMP280;46444;45.590;5.284;2022-11-04T07:40:00;97993.41;;;12.43
60615;BMP280;46444;45.590;5.284;2022-11-04T07:42:31;97988.03;;;12.43
60615;BMP280;46444;45.590;5.284;2022-11-04T07:44:57;97983.22;;;12.55
60615;BMP280;46444;45.590;5.284;2022-11-04T07:47:22;97983.75;;;12.57
60615;BMP280;46444;45.590;5.284;2022-11-04T07:49:48;97974.09;;;12.61
60615;BMP280;46444;45.590;5.284;2022-11-04T07:52:17;97978.13;;;12.63
60615;BMP280;46444;45.590;5.284;2022-11-04T07:54:42;97981.06;;;12.72
60615;BMP280;46444;45.590;5.284;2022-11-04T07:57:08;97970.88;;;12.69
60615;BMP280;46444;45.590;5.284;2022-11-04T07:59:33;97973.03;;;12.77
60615;BMP280;46444;45.590;5.284;2022-11-04T08:02:02;97968.72;;;12.81
60615;BMP280;46444;45.590;5.284;2022-11-04T08:04:30;97968.19;;;12.79
60615;BMP280;46444;45.590;5.284;2022-11-04T08:07:02;97956.13;;;12.86
60615;BMP280;46444;45.590;5.284;2022-11-04T08:09:30;97957.72;;;12.87
60615;BMP280;46444;45.590;5.284;2022-11-04T08:11:55;97963.88;;;12.93
60615;BMP280;46444;45.590;5.284;2022-11-04T08:14:29;97954.25;;;12.97
60615;BMP280;46444;45.590;5.284;2022-11-04T08:16:57;97956.38;;;12.90
60615;BMP280;46444;45.590;5.284;2022-11-04T08:19:24;97960.69;;;12.96
60615;BMP280;46444;45.590;5.284;2022-11-04T08:21:49;97961.72;;;13.05
60615;BMP280;46444;45.590;5.284;2022-11-04T08:24:34;97964.66;;;13.08
60615;BMP280;46444;45.590;5.284;2022-11-04T08:27:00;97955.84;;;12.98
60615;BMP280;46444;45.590;5.284;2022-11-04T08:29:26;97957.97;;;13.06
60615;BMP280;46444;45.590;5.284;2022-11-04T08:32:02;97955.28;;;13.06
60615;BMP280;46444;45.590;5.284;2022-11-04T08:34:36;97964.97;;;12.97
60615;BMP280;46444;45.590;5.284;2022-11-04T08:37:15;97956.66;;;13.03
60615;BMP280;46444;45.590;5.284;2022-11-04T08:39:41;97955.28;;;13.06
60615;BMP280;46444;45.590;5.284;2022-11-04T08:42:17;97950.97;;;13.15
60615;BMP280;46444;45.590;5.284;2022-11-04T08:44:43;97958.53;;;13.08
60615;BMP280;46444;45.590;5.284;2022-11-04T08:47:08;97946.41;;;13.20
60615;BMP280;46444;45.590;5.284;2022-11-04T08:49:38;97935.66;;;13.20
60615;BMP280;46444;45.590;5.284;2022-11-04T08:52:04;97940.19;;;13.30
60615;BMP280;46444;45.590;5.284;2022-11-04T08:54:32;97947.19;;;13.31
60615;BMP280;46444;45.590;5.284;2022-11-04T08:56:58;97934.88;;;13.20
60615;BMP280;46444;45.590;5.284;2022-11-04T08:59:23;97941.00;;;13.35
60615;BMP280;46444;45.590;5.284;2022-11-04T09:01:49;97950.38;;;13.38
60615;BMP280;46444;45.590;5.284;2022-11-04T09:04:14;97938.31;;;13.35
60615;BMP280;46444;45.590;5.284;2022-11-04T09:06:52;97942.84;;;13.35
60615;BMP280;46444;45.590;5.284;2022-11-04T09:09:20;97951.16;;;13.38
60615;BMP280;46444;45.590;5.284;2022-11-04T09:11:46;97949.81;;;13.36
60615;BMP280;46444;45.590;5.284;2022-11-04T09:14:15;97934.53;;;13.36
60615;BMP280;46444;45.590;5.284;2022-11-04T09:16:42;97940.41;;;13.43
60615;BMP280;46444;45.590;5.284;2022-11-04T09:19:07;97942.31;;;13.38
60615;BMP280;46444;45.590;5.284;2022-11-04T09:21:36;97945.03;;;13.33
60615;BMP280;46444;45.590;5.284;2022-11-04T09:24:01;97955.72;;;13.43
60615;BMP280;46444;45.590;5.284;2022-11-04T09:26:45;97961.38;;;13.36
60615;BMP280;46444;45.590;5.284;2022-11-04T09:29:11;97965.91;;;13.41
60615;BMP280;46444;45.590;5.284;2022-11-04T09:31:36;97956.84;;;13.27
60615;BMP280;46444;45.590;5.284;2022-11-04T09:34:02;97968.41;;;13.27
60615;BMP280;46444;45.590;5.284;2022-11-04T09:36:27;97974.56;;;13.23
60615;BMP280;46444;45.590;5.284;2022-11-04T09:38:56;97972.97;;;13.17
60615;BMP280;46444;45.590;5.284;2022-11-04T09:44:20;97990.16;;;13.06
60615;BMP280;46444;45.590;5.284;2022-11-04T09:46:48;97992.84;;;12.76
60615;BMP280;46444;45.590;5.284;2022-11-04T09:49:15;97991.25;;;12.80
60615;BMP280;46444;45.590;5.284;2022-11-04T09:54:53;98001.16;;;13.04
60615;BMP280;46444;45.590;5.284;2022-11-04T09:57:21;97991.78;;;12.92
60615;BMP280;46444;45.590;5.284;2022-11-04T09:59:47;97999.28;;;13.00
60615;BMP280;46444;45.590;5.284;2022-11-04T10:05:14;98004.91;;;12.93
60615;BMP280;46444;45.590;5.284;2022-11-04T10:13:31;98002.50;;;12.87
60615;BMP280;46444;45.590;5.284;2022-11-04T10:19:43;98009.75;;;12.66
60615;BMP280;46444;45.590;5.284;2022-11-04T10:22:58;98010.53;;;12.82
60615;BMP280;46444;45.590;5.284;2022-11-04T10:25:33;98010.53;;;12.87
60615;BMP280;46444;45.590;5.284;2022-11-04T10:28:02;98036.28;;;12.68
60615;BMP280;46444;45.590;5.284;2022-11-04T10:30:28;98030.91;;;12.93
60615;BMP280;46444;45.590;5.284;2022-11-04T10:33:25;98034.69;;;12.77
60615;BMP280;46444;45.590;5.284;2022-11-04T10:35:57;98030.38;;;12.76
60615;BMP280;46444;45.590;5.284;2022-11-04T10:38:56;98038.41;;;12.76
60615;BMP280;46444;45.590;5.284;2022-11-04T10:41:29;98051.81;;;12.81
60615;BMP280;46444;45.590;5.284;2022-11-04T10:44:06;98063.63;;;12.55
60615;BMP280;46444;45.590;5.284;2022-11-04T10:47:14;98051.31;;;12.79
60615;BMP280;46444;45.590;5.284;2022-11-04T10:53:12;98054.50;;;12.51
60615;BMP280;46444;45.590;5.284;2022-11-04T10:58:29;98053.16;;;12.53
60615;BMP280;46444;45.590;5.284;2022-11-04T11:00:55;98057.22;;;12.71
60615;BMP280;46444;45.590;5.284;2022-11-04T11:03:33;98058.00;;;12.76
60615;BMP280;46444;45.590;5.284;2022-11-04T11:06:13;98049.69;;;12.88
60615;BMP280;46444;45.590;5.284;2022-11-04T11:08:41;98049.16;;;12.91
60615;BMP280;46444;45.590;5.284;2022-11-04T11:11:08;98049.97;;;12.96
60615;BMP280;46444;45.590;5.284;2022-11-04T11:13:36;98058.28;;;12.85
60615;BMP280;46444;45.590;5.284;2022-11-04T11:16:17;98046.50;;;13.01
60615;BMP280;46444;45.590;5.284;2022-11-04T11:18:43;98051.03;;;12.85
60615;BMP280;46444;45.590;5.284;2022-11-04T11:24:34;98043.53;;;13.07
60615;BMP280;46444;45.590;5.284;2022-11-04T11:27:01;98050.53;;;13.03
60615;BMP280;46444;45.590;5.284;2022-11-04T11:29:36;98051.84;;;13.06
60615;BMP280;46444;45.590;5.284;2022-11-04T11:32:39;98050.22;;;13.15
60615;BMP280;46444;45.590;5.284;2022-11-04T11:36:04;98056.69;;;13.14
60615;BMP280;46444;45.590;5.284;2022-11-04T11:38:28;98061.16;;;13.38
60615;BMP280;46444;45.590;5.284;2022-11-04T11:41:09;98055.78;;;13.53
60615;BMP280;46444;45.590;5.284;2022-11-04T11:43:38;98057.69;;;13.43
60615;BMP280;46444;45.590;5.284;2022-11-04T11:46:05;98058.22;;;13.45
60615;BMP280;46444;45.590;5.284;2022-11-04T11:48:44;98060.81;;;13.70
60615;BMP280;46444;45.590;5.284;2022-11-04T11:51:22;98069.84;;;13.94
60615;BMP280;46444;45.590;5.284;2022-11-04T11:56:51;98063.16;;;13.86
60615;BMP280;46444;45.590;5.284;2022-11-04T11:59:41;98073.38;;;13.94
60615;BMP280;46444;45.590;5.284;2022-11-04T12:05:09;98073.00;;;14.16
60615;BMP280;46444;45.590;5.284;2022-11-04T12:07:58;98069.81;;;14.09
60615;BMP280;46444;45.590;5.284;2022-11-04T12:10:29;98079.63;;;14.33
60615;BMP280;46444;45.590;5.284;2022-11-04T12:13:02;98079.75;;;14.95
60615;BMP280;46444;45.590;5.284;2022-11-04T12:15:52;98086.00;;;15.19
60615;BMP280;46444;45.590;5.284;2022-11-04T12:18:29;98086.16;;;14.99
60615;BMP280;46444;45.590;5.284;2022-11-04T12:21:16;98073.69;;;14.80
60615;BMP280;46444;45.590;5.284;2022-11-04T12:26:28;98072.75;;;15.28
60615;BMP280;46444;45.590;5.284;2022-11-04T12:32:03;98072.16;;;15.31
60615;BMP280;46444;45.590;5.284;2022-11-04T12:34:40;98073.50;;;15.33
60615;BMP280;46444;45.590;5.284;2022-11-04T12:40:02;98075.34;;;15.38
60615;BMP280;46444;45.590;5.284;2022-11-04T12:42:42;98077.56;;;15.83
60615;BMP280;46444;45.590;5.284;2022-11-04T12:47:46;98066.13;;;16.33
60615;BMP280;46444;45.590;5.284;2022-11-04T12:53:08;98061.03;;;16.13
60615;BMP280;46444;45.590;5.284;2022-11-04T13:00:43;98057.50;;;15.70
60615;BMP280;46444;45.590;5.284;2022-11-04T13:03:15;98054.59;;;15.67
60615;BMP280;46444;45.590;5.284;2022-11-04T13:05:47;98061.94;;;15.61
60615;BMP280;46444;45.590;5.284;2022-11-04T13:08:26;98057.31;;;15.38
60615;BMP280;46444;45.590;5.284;2022-11-04T13:10:58;98051.13;;;15.38
60615;BMP280;46444;45.590;5.284;2022-11-04T13:13:31;98062.81;;;15.23
60615;BMP280;46444;45.590;5.284;2022-11-04T13:16:02;98063.13;;;15.22
60615;BMP280;46444;45.590;5.284;2022-11-04T13:18:31;98063.69;;;15.47
60615;BMP280;46444;45.590;5.284;2022-11-04T13:21:04;98058.47;;;15.56
60615;BMP280;46444;45.590;5.284;2022-11-04T13:23:38;98063.69;;;15.47
60615;BMP280;46444;45.590;5.284;2022-11-04T13:26:10;98061.63;;;15.39
60615;BMP280;46444;45.590;5.284;2022-11-04T13:28:38;98064.03;;;15.41
60615;BMP280;46444;45.590;5.284;2022-11-04T13:31:27;98061.38;;;15.36
60615;BMP280;46444;45.590;5.284;2022-11-04T13:36:40;98061.34;;;15.41
60615;BMP280;46444;45.590;5.284;2022-11-04T13:39:20;98068.38;;;15.37
60615;BMP280;46444;45.590;5.284;2022-11-04T13:44:54;98080.19;;;15.07
60615;BMP280;46444;45.590;5.284;2022-11-04T13:48:15;98094.78;;;15.01
60615;BMP280;46444;45.590;5.284;2022-11-04T13:50:36;98127.00;;;14.73
60615;BMP280;46444;45.590;5.284;2022-11-04T13:53:05;98116.06;;;14.59
60615;BMP280;46444;45.590;5.284;2022-11-04T13:55:31;98097.44;;;14.68
60615;BMP280;46444;45.590;5.284;2022-11-04T13:57:59;98108.22;;;14.63
60615;BMP280;46444;45.590;5.284;2022-11-04T14:00:27;98111.47;;;14.60
60615;BMP280;46444;45.590;5.284;2022-11-04T14:18:52;98138.81;;;14.18
60615;BMP280;46444;45.590;5.284;2022-11-04T14:21:24;98148.75;;;14.28
60615;BMP280;46444;45.590;5.284;2022-11-04T14:23:53;98152.25;;;14.18
60615;BMP280;46444;45.590;5.284;2022-11-04T14:26:43;98157.63;;;14.18
60615;BMP280;46444;45.590;5.284;2022-11-04T14:29:22;98171.06;;;14.18
60615;BMP280;46444;45.590;5.284;2022-11-04T14:31:50;98172.16;;;14.12
60615;BMP280;46444;45.590;5.284;2022-11-04T14:34:35;98174.56;;;14.09
60615;BMP280;46444;45.590;5.284;2022-11-04T14:37:23;98171.91;;;14.04
60615;BMP280;46444;45.590;5.284;2022-11-04T14:40:01;98169.47;;;14.02
60615;BMP280;46444;45.590;5.284;2022-11-04T14:42:50;98167.63;;;13.93
60615;BMP280;46444;45.590;5.284;2022-11-04T14:45:47;98168.16;;;14.00
60615;BMP280;46444;45.590;5.284;2022-11-04T14:48:17;98171.66;;;14.00
60615;BMP280;46444;45.590;5.284;2022-11-04T14:50:49;98173.00;;;13.88
60615;BMP280;46444;45.590;5.284;2022-11-04T14:53:35;98168.97;;;13.95
60615;BMP280;46444;45.590;5.284;2022-11-04T14:56:16;98166.31;;;13.80
60615;BMP280;46444;45.590;5.284;2022-11-04T14:59:01;98164.19;;;13.82
60615;BMP280;46444;45.590;5.284;2022-11-04T15:04:29;98163.09;;;13.78
60615;BMP280;46444;45.590;5.284;2022-11-04T15:07:04;98173.59;;;13.75
60615;BMP280;46444;45.590;5.284;2022-11-04T15:09:38;98170.91;;;13.65
60615;BMP280;46444;45.590;5.284;2022-11-04T15:14:51;98177.91;;;13.56
60615;BMP280;46444;45.590;5.284;2022-11-04T15:17:37;98175.22;;;13.56
60615;BMP280;46444;45.590;5.284;2022-11-04T15:20:03;98183.00;;;13.57
60615;BMP280;46444;45.590;5.284;2022-11-04T15:22:29;98188.91;;;13.54
60615;BMP280;46444;45.590;5.284;2022-11-04T15:24:55;98184.63;;;13.53
60615;BMP280;46444;45.590;5.284;2022-11-04T15:27:27;98191.34;;;13.56
60615;BMP280;46444;45.590;5.284;2022-11-04T15:30:00;98181.13;;;13.53
60615;BMP280;46444;45.590;5.284;2022-11-04T15:35:19;98198.28;;;13.47
60615;BMP280;46444;45.590;5.284;2022-11-04T15:37:47;98191.31;;;13.46
60615;BMP280;46444;45.590;5.284;2022-11-04T15:40:14;98188.91;;;13.49
60615;BMP280;46444;45.590;5.284;2022-11-04T15:42:42;98205.81;;;13.45
60615;BMP280;46444;45.590;5.284;2022-11-04T15:45:35;98205.31;;;13.48
60615;BMP280;46444;45.590;5.284;2022-11-04T15:48:27;98210.09;;;13.36
60615;BMP280;46444;45.590;5.284;2022-11-04T15:51:04;98217.09;;;13.37
60615;BMP280;46444;45.590;5.284;2022-11-04T16:00:08;98226.19;;;13.21
60615;BMP280;46444;45.590;5.284;2022-11-04T16:02:46;98226.44;;;13.14
60615;BMP280;46444;45.590;5.284;2022-11-04T16:05:20;98231.03;;;13.14
60615;BMP280;46444;45.590;5.284;2022-11-04T16:08:20;98252.38;;;12.94
60615;BMP280;46444;45.590;5.284;2022-11-04T16:10:46;98253.00;;;12.96
60615;BMP280;46444;45.590;5.284;2022-11-04T16:18:48;98280.84;;;12.95
60615;BMP280;46444;45.590;5.284;2022-11-04T16:21:27;98286.66;;;12.72
60615;BMP280;46444;45.590;5.284;2022-11-04T16:24:02;98295.53;;;12.82
60615;BMP280;46444;45.590;5.284;2022-11-04T16:26:49;98290.91;;;12.63
60615;BMP280;46444;45.590;5.284;2022-11-04T16:29:20;98310.59;;;12.37
60615;BMP280;46444;45.590;5.284;2022-11-04T16:32:12;98315.09;;;12.26
60615;BMP280;46444;45.590;5.284;2022-11-04T16:34:39;98323.31;;;12.15
60615;BMP280;46444;45.590;5.284;2022-11-04T16:37:14;98320.22;;;12.33
60615;BMP280;46444;45.590;5.284;2022-11-04T16:39:42;98321.25;;;12.27
60615;BMP280;46444;45.590;5.284;2022-11-04T16:42:11;98335.22;;;12.34
60615;BMP280;46444;45.590;5.284;2022-11-04T16:44:37;98337.88;;;12.29
60615;BMP280;46444;45.590;5.284;2022-11-04T16:47:02;98346.72;;;12.29
60615;BMP280;46444;45.590;5.284;2022-11-04T16:49:28;98345.88;;;12.24
60615;BMP280;46444;45.590;5.284;2022-11-04T16:51:56;98341.91;;;12.31
60615;BMP280;46444;45.590;5.284;2022-11-04T16:54:24;98352.38;;;12.33
60615;BMP280;46444;45.590;5.284;2022-11-04T16:57:00;98352.06;;;12.29
60615;BMP280;46444;45.590;5.284;2022-11-04T16:59:28;98356.13;;;12.32
60615;BMP280;46444;45.590;5.284;2022-11-04T17:01:53;98345.72;;;12.40
60615;BMP280;46444;45.590;5.284;2022-11-04T17:04:22;98353.72;;;12.35
60615;BMP280;46444;45.590;5.284;2022-11-04T17:06:48;98355.00;;;12.28
60615;BMP280;46444;45.590;5.284;2022-11-04T17:09:22;98358.53;;;12.33
60615;BMP280;46444;45.590;5.284;2022-11-04T17:11:48;98359.72;;;12.16
60615;BMP280;46444;45.590;5.284;2022-11-04T17:14:14;98370.03;;;12.34
60615;BMP280;46444;45.590;5.284;2022-11-04T17:16:41;98364.69;;;12.34
60615;BMP280;46444;45.590;5.284;2022-11-04T17:19:26;98371.16;;;12.38
60615;BMP280;46444;45.590;5.284;2022-11-04T17:21:53;98371.16;;;12.38
60615;BMP280;46444;45.590;5.284;2022-11-04T17:24:29;98374.91;;;12.37
60615;BMP280;46444;45.590;5.284;2022-11-04T17:26:54;98376.00;;;12.41
60615;BMP280;46444;45.590;5.284;2022-11-04T17:29:29;98386.19;;;12.44
60615;BMP280;46444;45.590;5.284;2022-11-04T17:31:55;98394.16;;;12.29
60615;BMP280;46444;45.590;5.284;2022-11-04T17:34:21;98385.28;;;12.28
60615;BMP280;46444;45.590;5.284;2022-11-04T17:36:51;98392.53;;;12.33
60615;BMP280;46444;45.590;5.284;2022-11-04T17:39:32;98396.25;;;12.27
60615;BMP280;46444;45.590;5.284;2022-11-04T17:42:00;98394.44;;;12.32
60615;BMP280;46444;45.590;5.284;2022-11-04T17:48:04;98411.78;;;12.25
60615;BMP280;46444;45.590;5.284;2022-11-04T17:50:33;98423.81;;;12.22
60615;BMP280;46444;45.590;5.284;2022-11-04T17:53:02;98424.16;;;12.31
60615;BMP280;46444;45.590;5.284;2022-11-04T17:55:27;98422.50;;;12.25
60615;BMP280;46444;45.590;5.284;2022-11-04T17:57:53;98437.50;;;12.26
60615;BMP280;46444;45.590;5.284;2022-11-04T18:00:22;98435.41;;;12.33
60615;BMP280;46444;45.590;5.284;2022-11-04T18:02:54;98441.03;;;12.31
60615;BMP280;46444;45.590;5.284;2022-11-04T18:05:28;98440.72;;;12.28
60615;BMP280;46444;45.590;5.284;2022-11-04T18:07:54;98448.75;;;12.23